Time;durP1;ratioP1;P1;durP2;ratioP2;P2;SDS_P1;SDS_P2;PMS_P1;PMS_P2;Temp;Humidity;BMP_temperature;BMP_pressure;BME280_temperature;BME280_humidity;BME280_pressure;Samples;Min_cycle;Max_cycle;Signal;HPM_P1;HPM_P2
2022/10/04 00:01:31;;;;;;;18.63;3.67;;;;;;;12.61;100.00;102023.28;5095639;28;20051;-74
2022/10/04 00:04:08;;;;;;;22.08;4.22;;;;;;;12.65;100.00;102019.31;5095422;28;20011;-75
2022/10/04 00:06:36;;;;;;;19.70;3.63;;;;;;;12.52;100.00;102013.28;5095324;28;20027;-74
2022/10/04 00:09:11;;;;;;;26.85;4.75;;;;;;;12.67;100.00;102021.88;5095352;28;20076;-73
2022/10/04 00:11:42;;;;;;;20.38;4.07;;;;;;;12.55;100.00;102018.44;5095413;28;20040;-74
2022/10/04 00:14:21;;;;;;;24.25;4.13;;;;;;;12.38;100.00;102010.97;5092279;28;20027;-75
2022/10/04 00:16:48;;;;;;;21.77;4.03;;;;;;;12.11;100.00;102015.25;5091701;28;20020;-75
2022/10/04 00:19:13;;;;;;;24.40;3.75;;;;;;;12.11;100.00;102015.25;5077501;28;20046;-74
2022/10/04 00:22:09;;;;;;;28.55;5.10;;;;;;;12.18;100.00;102015.53;5075265;28;20032;-74
2022/10/04 00:24:36;;;;;;;25.00;4.00;;;;;;;12.12;100.00;102022.38;5067203;28;20055;-73
2022/10/04 00:27:21;;;;;;;31.63;4.50;;;;;;;12.08;100.00;102015.53;5091579;28;20391;-75
2022/10/04 00:30:02;;;;;;;22.75;4.53;;;;;;;11.99;100.00;102016.34;5091427;28;20091;-74
2022/10/04 00:32:38;;;;;;;30.48;5.82;;;;;;;11.88;100.00;102008.34;5092095;28;20035;-74
2022/10/04 00:35:23;;;;;;;120.32;51.47;;;;;;;11.91;100.00;102008.06;5079185;28;20031;-74
2022/10/04 00:37:59;;;;;;;100.68;39.03;;;;;;;12.11;100.00;102015.25;5092823;28;20092;-74
2022/10/04 00:40:30;;;;;;;41.35;14.00;;;;;;;12.04;100.00;102014.09;5091497;28;20035;-75
2022/10/04 00:43:28;;;;;;;40.42;12.98;;;;;;;12.03;100.00;102012.38;5094667;28;20031;-75
2022/10/04 00:46:03;;;;;;;25.08;7.95;;;;;;;12.15;100.00;102011.25;5091629;28;20036;-75
2022/10/04 00:48:49;;;;;;;37.20;8.10;;;;;;;12.10;100.00;102008.09;5098627;28;20031;-74
2022/10/04 00:51:31;;;;;;;25.52;4.63;;;;;;;11.95;100.00;102004.94;5098954;28;20173;-74
2022/10/04 00:54:03;;;;;;;21.80;7.53;;;;;;;11.97;100.00;101996.66;5098671;28;20068;-75
2022/10/04 00:56:47;;;;;;;30.70;5.63;;;;;;;12.04;100.00;101991.50;5098809;28;20024;-75
2022/10/04 00:59:49;;;;;;;29.35;4.28;;;;;;;12.10;100.00;101994.53;5095131;28;20495;-75
2022/10/04 01:02:20;;;;;;;26.30;4.53;;;;;;;12.19;100.00;101985.56;5057745;28;20020;-74
2022/10/04 01:04:58;;;;;;;23.85;4.63;;;;;;;12.26;100.00;101984.94;5057616;28;20111;-75
2022/10/04 01:07:29;;;;;;;17.48;3.63;;;;;;;12.13;100.00;101983.41;5076731;28;20038;-74
2022/10/04 01:10:18;;;;;;;30.30;9.48;;;;;;;12.00;100.00;101985.53;5078194;28;20042;-74
2022/10/04 01:13:14;;;;;;;22.92;5.30;;;;;;;11.93;100.00;101984.34;5095972;28;20040;-75
2022/10/04 01:15:58;;;;;;;20.50;4.97;;;;;;;11.87;100.00;101979.50;5057845;28;20131;-75
2022/10/04 01:18:24;;;;;;;20.92;5.28;;;;;;;11.94;100.00;101980.66;5057871;28;20039;-74
2022/10/04 01:21:01;;;;;;;30.83;6.43;;;;;;;12.06;100.00;101968.69;5066934;28;20035;-74
2022/10/04 01:23:36;;;;;;;21.67;4.63;;;;;;;12.08;100.00;101966.66;5077433;28;20039;-75
2022/10/04 01:26:04;;;;;;;19.08;4.85;;;;;;;12.00;100.00;101963.81;5077819;28;20035;-74
2022/10/04 01:28:33;;;;;;;26.42;6.35;;;;;;;11.92;100.00;101971.78;5095130;28;20036;-75
2022/10/04 01:30:59;;;;;;;24.25;4.35;;;;;;;12.03;100.00;101957.22;5077466;28;20031;-75
2022/10/04 01:33:24;;;;;;;24.10;5.30;;;;;;;12.03;100.00;101960.78;5087385;28;20023;-74
2022/10/04 01:35:50;;;;;;;33.72;10.52;;;;;;;11.78;100.00;101974.84;5094210;28;20046;-73
2022/10/04 01:38:16;;;;;;;33.90;9.70;;;;;;;11.78;100.00;101964.00;5094055;28;20023;-75
2022/10/04 01:40:55;;;;;;;25.58;8.40;;;;;;;11.84;100.00;101964.34;5097316;28;20051;-76
2022/10/04 01:43:28;;;;;;;28.23;8.50;;;;;;;11.52;100.00;101964.50;5090502;28;20020;-74
2022/10/04 01:45:59;;;;;;;24.98;5.57;;;;;;;11.67;100.00;101952.28;5077567;28;20017;-75
2022/10/04 01:48:31;;;;;;;20.92;5.75;;;;;;;11.75;100.00;101953.44;5077321;28;20061;-74
2022/10/04 01:51:18;;;;;;;21.40;5.53;;;;;;;11.72;100.00;101953.72;5095354;28;20504;-75
2022/10/04 01:54:00;;;;;;;23.55;6.00;;;;;;;11.73;100.00;101950.00;5077217;28;20073;-75
2022/10/04 01:56:31;;;;;;;22.08;5.35;;;;;;;11.85;100.00;101943.47;5076932;28;20027;-75
2022/10/04 01:59:01;;;;;;;20.42;5.65;;;;;;;11.80;100.00;101945.72;5077480;28;20024;-75
2022/10/04 02:01:33;;;;;;;21.63;5.65;;;;;;;11.82;100.00;101943.78;5077081;28;20020;-75
2022/10/04 02:04:05;;;;;;;16.55;5.22;;;;;;;11.83;100.00;101945.50;5094876;28;20126;-75
2022/10/04 02:06:36;;;;;;;;;;;;;;;11.79;100.00;101949.44;5077034;28;20036;-75
2022/10/04 02:09:09;;;;;;;17.30;5.00;;;;;;;11.83;100.00;101940.06;5076840;28;19919;-75
2022/10/04 02:11:36;;;;;;;34.78;5.90;;;;;;;11.57;100.00;101929.69;5077126;28;20024;-74
2022/10/04 02:14:04;;;;;;;28.52;5.60;;;;;;;11.65;100.00;101926.28;5076308;28;20054;-75
2022/10/04 02:16:34;;;;;;;24.08;6.13;;;;;;;11.66;100.00;101928.84;5078818;28;20081;-73
2022/10/04 02:19:02;;;;;;;27.95;6.28;;;;;;;11.73;100.00;101929.13;5097132;28;20031;-74
2022/10/04 02:21:28;;;;;;;26.20;5.60;;;;;;;11.68;100.00;101929.59;5093079;28;20031;-74
2022/10/04 02:33:45;;;;;;;31.65;6.28;;;;;;;11.12;100.00;101927.38;5072810;28;20035;-73
2022/10/04 02:36:12;;;;;;;30.55;6.45;;;;;;;11.27;100.00;101927.00;5070103;28;20023;-73
2022/10/04 02:38:48;;;;;;;28.08;6.75;;;;;;;11.50;100.00;101922.25;5060014;28;20027;-74
2022/10/04 02:41:28;;;;;;;24.83;5.70;;;;;;;11.53;100.00;101920.09;5080951;28;20013;-73
2022/10/04 02:44:08;;;;;;;24.27;6.25;;;;;;;11.58;100.00;101915.13;5072653;28;20032;-73
2022/10/04 02:46:46;;;;;;;19.38;5.70;;;;;;;11.54;100.00;101902.84;5084116;28;20024;-74
2022/10/04 02:49:38;;;;;;;26.17;6.85;;;;;;;11.45;100.00;101903.66;5080529;28;20016;-72
2022/10/04 02:52:23;;;;;;;35.30;6.82;;;;;;;11.58;100.00;101896.13;5067916;28;20027;-72
2022/10/04 02:54:58;;;;;;;28.17;6.78;;;;;;;11.55;100.00;101899.13;5082203;28;20019;-73
2022/10/04 02:57:24;;;;;;;24.55;5.97;;;;;;;11.59;100.00;101884.28;5082147;28;20127;-73
2022/10/04 03:00:00;;;;;;;18.55;5.15;;;;;;;11.32;100.00;101882.22;5066199;28;20056;-73
2022/10/04 03:02:28;;;;;;;29.08;7.03;;;;;;;11.51;100.00;101876.00;5059701;28;20045;-73
2022/10/04 03:05:03;;;;;;;32.55;7.03;;;;;;;11.60;100.00;101891.41;5078361;28;20024;-73
2022/10/04 03:07:31;;;;;;;24.70;6.07;;;;;;;11.57;100.00;101886.28;5064541;28;20024;-73
2022/10/04 03:09:56;;;;;;;31.08;6.40;;;;;;;11.65;100.00;101889.16;5057142;28;20027;-73
2022/10/04 03:12:22;;;;;;;23.13;6.18;;;;;;;11.72;100.00;101891.31;5078869;28;20020;-73
2022/10/04 03:14:47;;;;;;;34.03;6.50;;;;;;;11.62;100.00;101889.44;5061908;28;20035;-73
2022/10/04 03:17:15;;;;;;;28.77;6.38;;;;;;;11.72;100.00;101894.00;5090505;28;20069;-73
2022/10/04 03:19:41;;;;;;;17.23;5.63;;;;;;;11.80;100.00;101896.88;5080096;28;20435;-73
2022/10/04 03:22:09;;;;;;;25.35;6.05;;;;;;;11.59;100.00;101878.84;5073918;28;20029;-73
2022/10/04 03:24:50;;;;;;;35.97;5.82;;;;;;;11.65;100.00;101888.28;5055377;28;20038;-73
2022/10/04 03:27:21;;;;;;;21.08;5.90;;;;;;;11.72;100.00;101883.16;5066576;28;20099;-73
2022/10/04 03:29:49;;;;;;;21.30;5.57;;;;;;;11.72;100.00;101888.59;5064992;28;20040;-73
2022/10/04 03:32:16;;;;;;;21.35;5.32;;;;;;;11.79;100.00;101889.75;5053065;28;20049;-73
2022/10/04 03:34:52;;;;;;;24.65;6.20;;;;;;;11.59;100.00;101884.28;5085894;28;20425;-73
2022/10/04 03:37:20;;;;;;;27.38;6.32;;;;;;;11.72;100.00;101884.03;5053312;28;20063;-73
2022/10/04 03:39:51;;;;;;;26.27;6.63;;;;;;;11.69;100.00;101884.31;5075430;28;20050;-73
2022/10/04 03:42:23;;;;;;;21.75;6.32;;;;;;;11.79;100.00;101887.03;5078477;28;20027;-73
2022/10/04 03:44:52;;;;;;;23.75;5.50;;;;;;;11.69;100.00;101885.16;5061620;28;20039;-73
2022/10/04 03:47:26;;;;;;;30.02;6.47;;;;;;;11.83;100.00;101880.34;5084477;28;20043;-73
2022/10/04 03:49:54;;;;;;;40.33;7.43;;;;;;;11.68;100.00;101883.47;5070291;28;20026;-73
2022/10/04 03:52:24;;;;;;;20.05;4.72;;;;;;;11.75;100.00;101882.91;5074056;28;20027;-73
2022/10/04 03:54:54;;;;;;;24.45;6.13;;;;;;;11.68;100.00;101885.31;5058966;28;20036;-73
2022/10/04 03:57:20;;;;;;;26.52;6.13;;;;;;;11.50;100.00;101873.44;5056386;28;20056;-73
2022/10/04 03:59:46;;;;;;;22.50;6.03;;;;;;;11.46;100.00;101880.97;5070739;28;20024;-74
2022/10/04 04:02:53;;;;;;;24.48;5.40;;;;;;;11.52;100.00;101872.28;5058029;28;20019;-73
2022/10/04 04:05:25;;;;;;;26.85;6.78;;;;;;;11.71;100.00;101878.75;4998988;28;20027;-73
2022/10/04 04:08:13;;;;;;;25.15;6.80;;;;;;;11.63;100.00;101879.44;4996578;28;20030;-73
2022/10/04 04:10:44;;;;;;;21.08;5.53;;;;;;;11.81;100.00;101872.38;5062288;28;20097;-73
2022/10/04 04:13:21;;;;;;;23.23;6.38;;;;;;;11.73;100.00;101884.88;5060841;28;20023;-73
2022/10/04 04:15:48;;;;;;;34.63;6.75;;;;;;;11.47;100.00;101879.97;5075260;28;20027;-73
2022/10/04 04:18:25;;;;;;;25.02;6.78;;;;;;;11.46;100.00;101878.25;5063383;28;20101;-73
2022/10/04 04:20:53;;;;;;;23.20;6.53;;;;;;;11.56;100.00;101884.56;5074890;28;20071;-73
2022/10/04 04:23:23;;;;;;;26.58;6.38;;;;;;;11.52;100.00;101876.84;5069210;28;20020;-73
2022/10/04 04:25:54;;;;;;;26.50;6.35;;;;;;;11.50;100.00;101874.28;5088021;28;20039;-73
2022/10/04 04:28:31;;;;;;;30.20;8.10;;;;;;;11.50;100.00;101882.41;5066203;28;20026;-73
2022/10/04 04:31:06;;;;;;;28.05;7.57;;;;;;;11.55;100.00;101882.00;5083362;28;20055;-73
2022/10/04 04:33:48;;;;;;;34.85;7.35;;;;;;;11.45;100.00;101886.53;5074776;28;20077;-73
2022/10/04 04:36:15;;;;;;;29.45;8.00;;;;;;;11.39;100.00;101883.38;5076508;28;20017;-73
2022/10/04 04:41:29;;;;;;;29.23;7.75;;;;;;;11.38;100.00;101883.53;5082685;28;20028;-73
2022/10/04 04:43:54;;;;;;;35.03;7.97;;;;;;;11.33;100.00;101877.66;5063957;28;20024;-73
2022/10/04 04:46:21;;;;;;;22.15;6.18;;;;;;;11.40;100.00;101873.41;5060662;28;20115;-73
2022/10/04 04:48:50;;;;;;;27.63;6.30;;;;;;;11.36;100.00;101872.84;5076364;28;20047;-73
2022/10/04 04:51:23;;;;;;;27.33;6.68;;;;;;;11.29;100.00;101865.41;5084744;28;20046;-73
2022/10/04 04:53:51;;;;;;;40.03;6.78;;;;;;;11.18;100.00;101868.22;5058719;28;20032;-73
2022/10/04 04:56:20;;;;;;;23.23;6.20;;;;;;;11.19;100.00;101859.06;5082898;28;20048;-73
2022/10/04 04:58:48;;;;;;;21.10;5.85;;;;;;;11.08;100.00;101846.47;5090124;28;20028;-73
2022/10/04 05:01:22;;;;;;;23.27;6.63;;;;;;;10.98;100.00;101851.88;5083746;28;20048;-73
2022/10/04 05:04:02;;;;;;;25.02;6.40;;;;;;;11.01;100.00;101846.16;5086463;28;20077;-74
2022/10/04 05:06:29;;;;;;;33.17;6.18;;;;;;;11.12;100.00;101850.63;5068457;28;20037;-72
2022/10/04 05:08:55;;;;;;;32.22;7.07;;;;;;;11.22;100.00;101859.66;5073368;28;20032;-73
2022/10/04 05:11:24;;;;;;;35.15;7.13;;;;;;;11.21;100.00;101857.06;5092292;28;20028;-73
2022/10/04 05:13:54;;;;;;;19.95;5.85;;;;;;;11.19;100.00;101848.22;5066525;28;20028;-73
2022/10/04 05:16:26;;;;;;;30.10;5.95;;;;;;;11.24;100.00;101845.97;5089517;28;20034;-74
2022/10/04 05:18:59;;;;;;;37.13;6.38;;;;;;;11.39;100.00;101860.84;5078679;28;20035;-74
2022/10/04 05:21:27;;;;;;;30.88;6.40;;;;;;;11.28;100.00;101863.66;5075912;28;20484;-73
2022/10/04 05:23:56;;;;;;;27.50;6.18;;;;;;;11.37;100.00;101852.00;5066222;28;20102;-73
2022/10/04 05:26:29;;;;;;;24.60;6.15;;;;;;;11.40;100.00;101851.69;5055662;28;20033;-73
2022/10/04 05:29:00;;;;;;;16.75;5.80;;;;;;;11.25;100.00;101858.53;5059529;28;20028;-73
2022/10/04 05:31:50;;;;;;;26.88;6.50;;;;;;;11.28;100.00;101863.66;5089569;28;20026;-73
2022/10/04 05:34:27;;;;;;;30.98;7.57;;;;;;;11.35;100.00;101859.41;5065096;28;20017;-73
2022/10/04 05:37:07;;;;;;;32.03;8.13;;;;;;;11.12;100.00;101856.91;5075474;28;20092;-73
2022/10/04 05:39:42;;;;;;;23.92;7.28;;;;;;;11.22;100.00;101858.81;5078507;28;20017;-73
2022/10/04 05:42:37;;;;;;;34.03;8.15;;;;;;;11.11;100.00;101852.50;5089684;28;20039;-73
2022/10/04 05:45:15;;;;;;;30.65;6.47;;;;;;;11.20;100.00;101855.38;5055338;28;20020;-73
2022/10/04 05:47:41;;;;;;;33.13;7.95;;;;;;;11.28;100.00;101852.81;5085041;28;20024;-73
2022/10/04 05:50:16;;;;;;;26.20;7.40;;;;;;;11.28;100.00;101852.81;5084601;28;20025;-73
2022/10/04 05:52:42;;;;;;;23.38;6.38;;;;;;;11.19;100.00;101859.06;5091368;28;20119;-73
2022/10/04 05:55:25;;;;;;;20.85;7.65;;;;;;;11.21;100.00;101867.91;5073393;28;20104;-73
2022/10/04 05:58:17;;;;;;;20.17;6.40;;;;;;;11.24;100.00;101873.06;5061230;28;20024;-73
2022/10/04 06:01:28;;;;;;;22.80;6.53;;;;;;;11.26;100.00;101865.66;5073392;28;20020;-73
2022/10/04 06:04:16;;;;;;;23.63;7.40;;;;;;;11.33;100.00;101858.69;5077764;28;20028;-73
2022/10/04 06:06:54;;;;;;;28.00;8.20;;;;;;;11.12;100.00;101870.47;5080084;28;20108;-73
2022/10/04 06:09:43;;;;;;;25.25;7.28;;;;;;;11.09;100.00;101865.34;5085016;28;20032;-73
2022/10/04 06:12:19;;;;;;;30.27;9.18;;;;;;;11.18;100.00;101862.78;5063981;28;20118;-73
2022/10/04 06:15:07;;;;;;;22.25;7.30;;;;;;;11.12;100.00;101862.34;5080713;28;20020;-73
2022/10/04 06:18:04;;;;;;;29.77;7.90;;;;;;;11.11;100.00;101866.03;5065710;28;20024;-73
2022/10/04 06:20:57;;;;;;;32.67;7.70;;;;;;;11.04;100.00;101861.31;5064825;28;20024;-73
2022/10/04 06:23:25;;;;;;;28.77;7.78;;;;;;;11.10;100.00;101861.63;5064579;28;20480;-73
2022/10/04 06:25:59;;;;;;;25.83;8.02;;;;;;;11.12;100.00;101858.78;5065425;28;20020;-75
2022/10/04 06:28:30;;;;;;;35.85;9.15;;;;;;;11.20;100.00;101860.78;5057348;28;20035;-75
2022/10/04 06:31:21;;;;;;;29.73;8.43;;;;;;;11.30;100.00;101856.25;5077888;28;20071;-75
2022/10/04 06:34:27;;;;;;;27.90;9.02;;;;;;;11.23;100.00;101849.69;5086737;28;20035;-75
2022/10/04 06:37:30;;;;;;;30.10;9.38;;;;;;;11.23;100.00;101855.09;5051531;28;20036;-76
2022/10/04 06:40:07;;;;;;;39.17;11.32;;;;;;;11.19;100.00;101848.22;5070032;28;20415;-76
2022/10/04 06:42:36;;;;;;;35.50;10.02;;;;;;;11.22;100.00;101847.97;5066854;28;20028;-75
2022/10/04 06:45:29;;;;;;;26.98;9.32;;;;;;;11.35;100.00;101848.56;5062184;28;20048;-74
2022/10/04 06:48:32;;;;;;;46.13;9.70;;;;;;;11.33;100.00;101847.84;5073872;28;20036;-75
2022/10/04 06:51:22;;;;;;;30.08;9.30;;;;;;;11.38;100.00;101842.84;5073852;28;20073;-75
2022/10/04 06:54:12;;;;;;;35.30;8.43;;;;;;;11.39;100.00;101850.00;5073756;28;20523;-76
2022/10/04 06:56:47;;;;;;;25.45;8.85;;;;;;;11.48;100.00;101843.75;5062002;28;20388;-75
2022/10/04 06:59:46;;;;;;;33.92;7.93;;;;;;;11.43;100.00;101856.84;5071602;28;20084;-76
2022/10/04 07:23:45;;;;;;;33.50;9.25;;;;;;;12.75;100.00;101876.09;6153692;22;1253464;-76
2022/10/04 07:26:38;;;;;;;33.33;8.30;;;;;;;12.73;100.00;101864.53;6193917;23;20012;-77
2022/10/04 07:29:19;;;;;;;27.92;8.25;;;;;;;13.08;100.00;101868.38;6191170;23;20059;-76
2022/10/04 07:31:46;;;;;;;;;;;;;;;13.10;99.85;101871.78;6193438;23;20024;-76
2022/10/04 07:34:49;;;;;;;31.42;8.25;;;;;;;13.22;98.90;101876.06;6192881;23;19911;-76
2022/10/04 07:37:15;;;;;;;28.10;7.65;;;;;;;13.19;98.81;101873.63;6179912;23;20007;-76
2022/10/04 07:40:04;;;;;;;26.90;7.75;;;;;;;13.03;100.00;101876.13;6192819;23;20009;-76
2022/10/04 07:42:53;;;;;;;26.55;8.32;;;;;;;13.03;100.00;101870.69;6192808;23;20043;-76
2022/10/04 07:45:22;;;;;;;27.58;8.30;;;;;;;13.05;100.00;101874.13;6191144;23;20016;-76
2022/10/04 07:47:48;;;;;;;41.50;9.45;;;;;;;13.12;100.00;101874.41;6194192;23;20001;-76
2022/10/04 07:50:27;;;;;;;25.33;8.75;;;;;;;13.07;99.82;101866.69;6191593;23;20008;-76
2022/10/04 07:53:05;;;;;;;28.92;8.38;;;;;;;13.04;100.00;101883.31;6193501;23;20001;-76
2022/10/04 07:55:47;;;;;;;30.20;8.18;;;;;;;13.22;99.51;101880.66;6192292;23;20000;-76
2022/10/04 07:58:21;;;;;;;38.22;10.02;;;;;;;13.15;98.77;101884.97;6192786;23;20008;-76
2022/10/04 08:01:01;;;;;;;36.60;9.20;;;;;;;13.17;99.35;101883.81;6191619;23;20131;-76
2022/10/04 08:03:46;;;;;;;28.00;7.82;;;;;;;13.15;99.94;101874.94;6192674;23;20016;-74
2022/10/04 08:06:40;;;;;;;34.50;7.75;;;;;;;13.25;99.47;101875.78;6193767;23;20000;-75
2022/10/04 08:09:46;;;;;;;37.25;9.63;;;;;;;13.41;98.84;101885.13;6191186;23;20008;-75
2022/10/04 08:12:34;;;;;;;22.77;8.25;;;;;;;13.52;98.68;101874.06;6189045;23;20043;-75
2022/10/04 08:15:10;;;;;;;32.33;9.80;;;;;;;13.65;97.81;101871.81;6191588;23;20009;-75
2022/10/04 08:17:47;;;;;;;29.63;9.60;;;;;;;13.56;98.80;101867.28;6192513;23;19997;-75
2022/10/04 08:20:43;;;;;;;32.80;9.02;;;;;;;13.89;97.54;101862.16;6191117;23;20005;-75
2022/10/04 08:23:22;;;;;;;30.10;8.15;;;;;;;14.10;96.60;101863.56;6188232;23;20072;-74
2022/10/04 08:25:53;;;;;;;28.33;8.38;;;;;;;14.14;96.90;101872.28;6184792;23;20815;-74
2022/10/04 08:32:09;;;;;;;33.83;8.40;;;;;;;14.18;95.59;101861.94;6186226;23;20001;-76
2022/10/04 08:34:53;;;;;;;29.10;8.27;;;;;;;14.43;95.50;101871.16;6187826;23;20016;-76
2022/10/04 08:37:52;;;;;;;29.23;9.05;;;;;;;14.53;94.26;101866.47;6185726;23;20035;-74
2022/10/04 08:40:22;;;;;;;30.17;8.40;;;;;;;14.74;93.58;101874.31;6186702;23;20012;-76
2022/10/04 08:43:03;;;;;;;37.95;8.65;;;;;;;14.90;91.96;101875.22;6182713;23;20059;-77
2022/10/04 08:46:07;;;;;;;29.42;10.20;;;;;;;14.88;91.91;101871.81;6186773;23;20012;-76
2022/10/04 08:49:09;;;;;;;29.38;8.73;;;;;;;14.75;93.01;101868.69;6185807;23;20055;-77
2022/10/04 08:51:41;;;;;;;;;;;;;;;15.04;90.38;101864.72;6185857;23;20005;-76
2022/10/04 08:54:44;;;;;;;35.97;9.32;;;;;;;15.12;89.93;101878.41;6187244;23;19908;-76
2022/10/04 08:57:34;;;;;;;51.63;10.15;;;;;;;14.88;91.74;101877.28;6185236;23;20013;-76
2022/10/04 09:00:19;;;;;;;29.58;9.40;;;;;;;15.08;90.97;101871.59;6186805;23;20092;-76
2022/10/04 09:03:06;;;;;;;31.20;10.23;;;;;;;15.13;90.76;101869.22;6184996;23;20012;-76
2022/10/04 09:06:24;;;;;;;36.25;9.82;;;;;;;14.82;90.34;101875.19;6186940;23;20000;-75
2022/10/04 09:09:05;;;;;;;27.10;8.57;;;;;;;15.26;90.38;101872.34;6107670;23;20001;-75
2022/10/04 09:11:45;;;;;;;24.60;8.63;;;;;;;15.61;89.55;101867.69;6187024;23;20388;-75
2022/10/04 09:14:30;;;;;;;38.25;9.40;;;;;;;15.63;89.05;101868.38;6186483;23;20000;-75
2022/10/04 09:17:23;;;;;;;35.95;9.85;;;;;;;15.90;86.23;101870.81;6188374;23;20028;-75
2022/10/04 09:20:08;;;;;;;24.90;8.05;;;;;;;15.65;87.16;101863.63;6188480;23;20001;-75
2022/10/04 09:23:07;;;;;;;26.63;7.28;;;;;;;15.62;88.05;101863.94;6176373;23;20080;-75
2022/10/04 09:25:52;;;;;;;29.45;6.53;;;;;;;15.70;86.53;101855.78;6127870;23;20009;-76
2022/10/04 09:28:29;;;;;;;31.17;7.32;;;;;;;15.83;86.21;101860.75;6184866;23;20008;-75
2022/10/04 09:31:39;;;;;;;30.27;7.45;;;;;;;15.94;85.75;101852.22;6184072;23;20009;-76
2022/10/04 09:34:26;;;;;;;23.38;6.90;;;;;;;15.54;87.88;101851.09;6116270;23;19985;-75
2022/10/04 09:37:02;;;;;;;26.33;6.60;;;;;;;15.57;87.44;101844.44;6184032;23;20016;-76
2022/10/04 09:40:05;;;;;;;31.30;7.00;;;;;;;15.68;86.67;101841.44;6185335;23;20001;-75
2022/10/04 09:42:55;;;;;;;31.40;7.28;;;;;;;15.62;86.19;101836.66;6187868;23;20424;-76
2022/10/04 09:46:07;;;;;;;29.42;6.18;;;;;;;15.71;84.95;101841.09;6186553;23;20063;-75
2022/10/04 09:48:52;;;;;;;;;;;;;;;15.58;83.32;101841.53;6151715;23;20044;-75
2022/10/04 09:51:28;;;;;;;22.67;5.97;;;;;;;15.47;83.05;101845.47;6186273;23;19908;-76
2022/10/04 09:54:14;;;;;;;25.63;6.32;;;;;;;15.64;82.42;101846.38;6186368;23;20060;-76
2022/10/04 09:57:00;;;;;;;25.48;5.88;;;;;;;15.64;82.91;101850.97;6186631;23;20031;-76
2022/10/04 09:59:40;;;;;;;32.25;7.03;;;;;;;15.79;82.59;101849.31;6110185;23;20020;-76
2022/10/04 10:02:32;;;;;;;24.48;6.32;;;;;;;15.68;82.46;101844.16;6185614;23;19993;-74
2022/10/04 10:05:42;;;;;;;25.77;5.90;;;;;;;15.79;82.96;101849.31;6187941;23;20005;-76
2022/10/04 10:08:23;;;;;;;33.08;7.25;;;;;;;15.59;83.47;101847.88;6185776;23;20009;-76
2022/10/04 10:14:04;;;;;;;24.48;5.63;;;;;;;15.71;82.61;101846.56;6187178;23;20004;-76
2022/10/04 10:16:58;;;;;;;29.90;6.22;;;;;;;16.19;82.60;101851.22;6186005;23;20103;-76
2022/10/04 10:19:33;;;;;;;34.55;6.80;;;;;;;16.02;81.00;101861.28;6186690;23;20009;-75
2022/10/04 10:22:10;;;;;;;29.10;7.28;;;;;;;15.69;82.41;101854.91;6186046;23;20001;-75
2022/10/04 10:25:09;;;;;;;20.10;6.97;;;;;;;15.36;83.25;101858.56;6186308;23;20004;-75
2022/10/04 10:28:05;;;;;;;35.63;7.97;;;;;;;15.72;83.01;101853.75;6186847;23;20080;-76
2022/10/04 10:31:17;;;;;;;28.60;7.72;;;;;;;15.72;82.43;101842.81;6184282;23;20005;-75
2022/10/04 10:34:02;;;;;;;;;;;;;;;16.09;80.87;101844.19;6162532;23;20020;-76
2022/10/04 10:37:06;;;;;;;31.92;6.90;;;;;;;16.55;79.13;101835.28;6174550;23;19951;-76
2022/10/04 10:40:03;;;;;;;35.85;7.32;;;;;;;16.57;78.70;101842.47;6167883;23;20115;-76
2022/10/04 10:43:00;;;;;;;27.48;7.05;;;;;;;16.78;79.21;101835.44;6176245;23;20092;-76
2022/10/04 10:46:06;;;;;;;24.95;7.50;;;;;;;16.62;79.79;101829.09;6094523;23;20005;-75
2022/10/04 10:48:56;;;;;;;36.58;7.90;;;;;;;17.19;76.99;101826.22;6173647;23;20009;-75
2022/10/04 10:51:24;;;;;;;27.23;7.68;;;;;;;16.90;78.45;101822.22;6176931;23;20005;-76
2022/10/04 10:54:38;;;;;;;34.10;7.03;;;;;;;17.65;77.19;101827.13;6175997;23;20008;-76
2022/10/04 10:57:36;;;;;;;22.80;8.07;;;;;;;17.11;77.42;101829.00;6175890;23;20000;-75
2022/10/04 11:00:32;;;;;;;35.35;8.65;;;;;;;17.12;77.14;101819.75;6164714;23;20009;-76
2022/10/04 11:03:13;;;;;;;33.33;7.88;;;;;;;17.45;75.10;101814.94;6185859;23;20016;-75
2022/10/04 11:06:12;;;;;;;31.15;8.07;;;;;;;17.14;76.69;101823.13;6188119;23;20005;-76
2022/10/04 11:09:17;;;;;;;37.88;9.63;;;;;;;17.08;76.87;101814.63;6185449;23;20361;-76
2022/10/04 11:12:04;;;;;;;36.85;7.38;;;;;;;17.74;76.65;101817.03;6159678;23;20113;-76
2022/10/04 11:15:02;;;;;;;27.25;7.05;;;;;;;18.08;74.55;101822.06;6186032;23;20670;-76
2022/10/04 11:17:43;;;;;;;30.17;8.00;;;;;;;17.40;75.27;101826.44;6103337;23;20016;-76
2022/10/04 11:21:25;;;;;;;21.63;6.55;;;;;;;17.73;74.41;101815.28;6184795;23;20013;-75
2022/10/04 11:24:24;;;;;;;30.38;7.55;;;;;;;17.63;74.17;101808.16;6000756;23;20017;-75
2022/10/04 11:27:12;;;;;;;24.40;7.13;;;;;;;17.78;74.29;101807.38;6013653;23;20003;-75
2022/10/04 11:29:57;;;;;;;23.60;6.47;;;;;;;18.27;73.11;101809.72;6163155;23;20005;-76
2022/10/04 11:32:35;;;;;;;23.77;6.50;;;;;;;17.60;75.08;101814.00;6186179;23;20013;-75
2022/10/04 11:35:21;;;;;;;31.60;7.50;;;;;;;17.34;75.94;101802.50;6185659;23;19997;-75
2022/10/04 11:38:10;;;;;;;27.27;7.20;;;;;;;17.36;76.63;101812.25;6187820;23;19997;-76
2022/10/04 11:40:43;;;;;;;28.13;8.02;;;;;;;17.41;76.04;101787.09;6185029;23;20030;-76
2022/10/04 11:43:34;;;;;;;24.25;6.80;;;;;;;17.61;75.64;101788.31;6184968;23;20084;-75
2022/10/04 11:46:37;;;;;;;25.08;5.78;;;;;;;18.38;72.71;101784.56;6184646;23;20084;-75
2022/10/04 11:49:15;;;;;;;26.58;6.28;;;;;;;17.74;74.03;101782.25;6185017;23;20001;-75
2022/10/04 11:52:03;;;;;;;26.55;6.25;;;;;;;17.42;74.67;101775.09;6185171;23;20001;-75
2022/10/04 11:54:50;;;;;;;23.00;5.75;;;;;;;17.51;73.76;101765.78;6185734;23;20337;-75
2022/10/04 11:57:33;;;;;;;20.13;5.43;;;;;;;17.31;74.43;101759.06;6185106;23;20009;-74
2022/10/04 12:00:45;;;;;;;34.17;5.88;;;;;;;17.73;72.09;101768.72;6190239;23;20001;-74
2022/10/04 12:03:26;;;;;;;18.52;4.10;;;;;;;17.63;71.63;101753.38;6096786;23;20005;-74
2022/10/04 12:06:02;;;;;;;30.55;5.47;;;;;;;17.50;72.54;101755.88;6188280;23;20016;-75
2022/10/04 12:08:39;;;;;;;25.35;5.47;;;;;;;18.27;69.68;101754.91;6187412;23;20012;-75
2022/10/04 12:11:05;;;;;;;13.68;3.72;;;;;;;18.16;69.77;101759.78;6190528;23;20005;-75
2022/10/04 12:14:02;;;;;;;17.77;4.00;;;;;;;18.45;69.34;101747.13;6188195;23;20013;-75
2022/10/04 12:16:36;;;;;;;17.73;4.47;;;;;;;18.65;67.52;101740.06;6190068;23;20408;-75
2022/10/04 12:19:39;;;;;;;21.13;4.55;;;;;;;19.07;66.78;101732.16;6188883;23;20093;-75
2022/10/04 12:22:42;;;;;;;14.35;4.07;;;;;;;18.32;66.89;101744.19;6190113;23;20062;-75
2022/10/04 12:25:29;;;;;;;17.40;4.13;;;;;;;18.11;68.00;101754.00;6189998;23;20044;-75
2022/10/04 12:28:16;;;;;;;13.90;3.75;;;;;;;17.76;69.77;101735.50;6189209;23;20004;-75
2022/10/04 12:30:45;;;;;;;17.98;4.07;;;;;;;18.14;68.96;101733.59;6190794;23;20007;-75
2022/10/04 12:33:20;;;;;;;14.85;3.30;;;;;;;18.56;68.03;101721.97;6189578;23;20074;-74
2022/10/04 12:36:12;;;;;;;19.38;3.85;;;;;;;17.89;69.28;101735.72;6190594;23;20063;-74
2022/10/04 12:38:54;;;;;;;16.17;3.65;;;;;;;18.26;67.35;101709.34;6188046;23;20001;-75
2022/10/04 12:41:44;;;;;;;21.35;3.75;;;;;;;19.01;66.07;101708.22;6189046;23;19997;-77
2022/10/04 12:44:23;;;;;;;16.98;4.10;;;;;;;19.02;65.76;101704.44;6189525;23;20008;-77
2022/10/04 12:47:16;;;;;;;16.05;3.17;;;;;;;19.22;63.67;101711.00;6190884;23;20005;-74
2022/10/04 12:50:18;;;;;;;15.02;3.03;;;;;;;19.38;63.92;101709.91;6132220;23;20095;-76
2022/10/04 12:52:53;;;;;;;13.38;3.40;;;;;;;18.60;64.69;101712.34;6188025;23;20042;-75
2022/10/04 12:55:40;;;;;;;13.80;3.50;;;;;;;18.49;64.64;101693.63;6188739;23;20001;-76
2022/10/04 12:58:33;;;;;;;16.63;3.97;;;;;;;18.53;65.29;101711.41;6187887;23;20020;-76